Anette — A8WY8 — position and weather

sailwx.info

Track history (hours):
 
Tides and Currents Weather Stations Pressure Air Temp Water Temp Dewpoint Dewpoint Depression Visibility Wind Speed Wind Dir Waves Ship Positions

Anette

Last reported at 2016-Aug-24 14:08 UTC. Time now 2016-Aug-25 01:01 UTC.
Position N 26°50' W 119°17'.

Length 180 m; draft 7.1 m.

Type: Cargo ship. MMSI: 636092099.

Date/timePositionNaut miles runAvg speedWind from/ knotsBaromVisibWave heightAir tempDewpointWater temp
2016-Aug-24 14:08N 26°50' W 119°17'2814.6
2016-Aug-24 12:11N 27°12' W 119°36'914.6
2016-Aug-24 11:33N 27°20' W 119°43'1414.4
2016-Aug-24 10:34N 27°31' W 119°53'1414.3
2016-Aug-24 09:33N 27°42' W 120°03'1413.9
2016-Aug-24 08:32N 27°53' W 120°13'1413.8
2016-Aug-24 07:33N 28°04' W 120°23'1613.9
2016-Aug-24 06:22N 28°17' W 120°34'2513.9
2016-Aug-24 04:34N 28°36' W 120°52'1713.9
2016-Aug-24 03:22N 28°49' W 121°04'1113.9
2016-Aug-24 02:33N 28°58' W 121°12'1414.1
2016-Aug-24 01:33N 29°09' W 121°22'1414.1
2016-Aug-24 00:33N 29°20' W 121°32'1414.3
2016-Aug-23 23:33N 29°31' W 121°42'1414.4
2016-Aug-23 22:34N 29°42' W 121°53'1414.4
2016-Aug-23 21:33N 29°54' W 122°03'1514.6
2016-Aug-23 20:33N 30°05' W 122°13'3014.8
2016-Aug-23 18:33N 30°28' W 122°35'2014.5
2016-Aug-23 17:08N 30°44' W 122°50'814.6
2016-Aug-23 16:34N 30°51' W 122°56'44814.2
2016-Aug-22 09:07N 37°09' W 127°45'2313.7
2016-Aug-22 07:28N 37°30' W 127°55'1914.0
2016-Aug-22 06:07N 37°48' W 128°04'24914.0
2016-Aug-21 12:22N 41°51' W 129°13'1214.7
2016-Aug-21 11:33N 42°03' W 129°14'4914.1
2016-Aug-21 08:04N 42°52' W 129°16'3514.1
2016-Aug-21 05:33N 43°27' W 129°17'1413.9
2016-Aug-21 04:33N 43°41' W 129°17'1414.2
2016-Aug-21 03:33N 43°55' W 129°18'1414.3
2016-Aug-21 02:33N 44°09' W 129°19'1514.5
2016-Aug-21 01:34N 44°24' W 129°18'1514.4
2016-Aug-21 00:32N 44°39' W 129°19'1414.4
2016-Aug-20 23:33N 44°53' W 129°20'10513.0
2016-Aug-20 15:31N 46°36' W 128°58'4413.5
2016-Aug-20 12:17N 47°00' W 128°04'1013.3
2016-Aug-20 11:33N 47°06' W 127°53'1413.7
2016-Aug-20 10:33N 47°13' W 127°36'1413.7
2016-Aug-20 09:33N 47°21' W 127°19'1413.7
2016-Aug-20 08:33N 47°29' W 127°03'1413.9
2016-Aug-20 07:33N 47°37' W 126°46'1413.7
2016-Aug-20 06:34N 47°44' W 126°28'1413.7
2016-Aug-20 05:33N 47°51' W 126°11'1413.7
2016-Aug-20 04:33N 47°58' W 125°54'1413.8
2016-Aug-20 03:34N 48°06' W 125°36'1413.7
2016-Aug-20 02:34N 48°14' W 125°20'1414.1
2016-Aug-20 01:34N 48°25' W 125°07'1312.9
2016-Aug-20 00:33N 48°31' W 124°50'1413.8
2016-Aug-19 23:33N 48°27' W 124°29'1313.4
2016-Aug-19 22:33N 48°22' W 124°11'1413.4
2016-Aug-19 21:33N 48°17' W 123°52'1414.0
2016-Aug-19 20:33N 48°16' W 123°31'1110.5
2016-Aug-19 19:33N 48°23' W 123°19'1212.3
2016-Aug-19 18:33N 48°35' W 123°14'1413.6
2016-Aug-19 17:33N 48°46' W 123°03'1313.1
2016-Aug-19 16:33N 48°57' W 123°15'1615.9
2016-Aug-19 15:33N 49°08' W 123°32'1414.2
2016-Aug-19 14:34N 49°12' W 123°53'3 3.3
2016-Aug-19 13:31N 49°09' W 123°53'0 0.0
2016-Aug-19 12:31N 49°09' W 123°53'0 0.0
2016-Aug-19 11:31N 49°09' W 123°53'0 0.0
2016-Aug-19 10:31N 49°09' W 123°53'0 0.0
2016-Aug-19 09:19N 49°09' W 123°53'0 0.0
2016-Aug-19 08:31N 49°09' W 123°53'0 0.0
2016-Aug-19 07:31N 49°09' W 123°53'0 0.0
2016-Aug-19 06:31N 49°09' W 123°53'0 0.0
2016-Aug-19 05:31N 49°09' W 123°53'0 0.0
2016-Aug-19 04:31N 49°09' W 123°53'0 0.0
2016-Aug-19 03:31N 49°09' W 123°53'0 0.0
2016-Aug-19 02:31N 49°09' W 123°53'0 0.0
2016-Aug-19 01:31N 49°09' W 123°53'0 0.0
2016-Aug-19 00:28N 49°09' W 123°53'0 0.0
2016-Aug-18 23:31N 49°09' W 123°53'0 0.0
2016-Aug-18 22:31N 49°09' W 123°53'0 0.0
2016-Aug-18 21:31N 49°09' W 123°53'0 0.0
2016-Aug-18 20:31N 49°09' W 123°53'0 0.0
2016-Aug-18 19:31N 49°09' W 123°53'0 0.0
2016-Aug-18 18:31N 49°09' W 123°53'0 0.0
2016-Aug-18 17:25N 49°09' W 123°53'0 0.0
2016-Aug-18 16:31N 49°09' W 123°53'0 0.0
2016-Aug-18 15:31N 49°09' W 123°53'0 0.0
2016-Aug-18 14:28N 49°09' W 123°53'0 0.0
2016-Aug-18 13:28N 49°09' W 123°53'0 0.0
2016-Aug-18 12:28N 49°09' W 123°53'0 0.0
2016-Aug-18 11:28N 49°09' W 123°53'0 0.0
2016-Aug-18 10:31N 49°09' W 123°53'0 0.0
2016-Aug-18 09:31N 49°09' W 123°53'0 0.0
2016-Aug-18 08:28N 49°09' W 123°53'0 0.0
2016-Aug-18 07:28N 49°09' W 123°53'0 0.0
2016-Aug-18 06:31N 49°09' W 123°53'0 0.0
2016-Aug-18 05:28N 49°09' W 123°53'0 0.0
2016-Aug-18 04:28N 49°09' W 123°53'0 0.0
2016-Aug-18 03:28N 49°09' W 123°53'0 0.0
2016-Aug-18 02:22N 49°09' W 123°53'0 0.0
2016-Aug-18 01:28N 49°09' W 123°53'0 0.0
2016-Aug-18 00:28N 49°09' W 123°53'0 0.0
2016-Aug-17 23:22N 49°09' W 123°53'0 0.0
2016-Aug-17 22:31N 49°09' W 123°53'0 0.0
2016-Aug-17 21:31N 49°09' W 123°53'0 0.0
2016-Aug-17 20:32N 49°09' W 123°53'0 0.0
2016-Aug-17 17:28N 49°09' W 123°53'0 0.0
2016-Aug-17 16:34N 49°09' W 123°53'4 3.6
2016-Aug-17 15:33N 49°13' W 123°52'1111.0
2016-Aug-17 14:33N 49°09' W 123°36'1212.2
2016-Aug-17 13:33N 49°03' W 123°20'1212.5
2016-Aug-17 12:33N 48°54' W 123°06'10 9.5
2016-Aug-17 11:33N 48°45' W 123°04'1010.5
2016-Aug-17 10:34N 48°36' W 123°13'1312.8
2016-Aug-17 09:33N 48°24' W 123°14'1111.3
2016-Aug-17 08:33N 48°16' W 123°26'1312.7
2016-Aug-17 07:33N 48°13' W 123°45'1313.2
2016-Aug-17 06:33N 48°16' W 124°04'1312.7
2016-Aug-17 05:33N 48°22' W 124°22'1212.5
2016-Aug-17 04:34N 48°27' W 124°39'1211.8
2016-Aug-17 03:33N 48°28' W 124°56'1312.3
2016-Aug-17 02:29N 48°18' W 125°09'1212.8
2016-Aug-17 01:33N 48°09' W 125°21'1313.2
2016-Aug-17 00:34N 48°02' W 125°37'1313.0
2016-Aug-16 23:34N 47°55' W 125°53'1312.8
2016-Aug-16 22:34N 47°48' W 126°09'1312.5
2016-Aug-16 21:31N 47°42' W 126°26'1212.4
2016-Aug-16 20:33N 47°35' W 126°41'1411.9
2016-Aug-16 19:24N 47°28' W 126°58'1212.6
2016-Aug-16 18:26N 47°21' W 127°13'50811.8
2016-Aug-14 23:14N 38°57' W 128°38'2212.7
2016-Aug-14 21:32N 38°37' W 128°28'2713.0
2016-Aug-14 19:29N 38°12' W 128°16'  
Track history (hours):
 
Tides and Currents Weather Stations Pressure Air Temp Water Temp Dewpoint Dewpoint Depression Visibility Wind Speed Wind Dir Waves Ship Positions

Anette

Last reported at 2016-Aug-24 14:08 UTC. Time now 2016-Aug-25 01:01 UTC.
Position N 26°50' W 119°17'.

Length 180 m; draft 7.1 m.

Type: Cargo ship. MMSI: 636092099.

Date/timePositionNaut miles runAvg speedWind from/ knotsBaromVisibWave heightAir tempDewpointWater temp
2016-Aug-24 14:08N 26°50' W 119°17'2814.6
2016-Aug-24 12:11N 27°12' W 119°36'914.6
2016-Aug-24 11:33N 27°20' W 119°43'1414.4
2016-Aug-24 10:34N 27°31' W 119°53'1414.3
2016-Aug-24 09:33N 27°42' W 120°03'1413.9
2016-Aug-24 08:32N 27°53' W 120°13'1413.8
2016-Aug-24 07:33N 28°04' W 120°23'1613.9
2016-Aug-24 06:22N 28°17' W 120°34'2513.9
2016-Aug-24 04:34N 28°36' W 120°52'1713.9
2016-Aug-24 03:22N 28°49' W 121°04'1113.9
2016-Aug-24 02:33N 28°58' W 121°12'1414.1
2016-Aug-24 01:33N 29°09' W 121°22'1414.1
2016-Aug-24 00:33N 29°20' W 121°32'1414.3
2016-Aug-23 23:33N 29°31' W 121°42'1414.4
2016-Aug-23 22:34N 29°42' W 121°53'1414.4
2016-Aug-23 21:33N 29°54' W 122°03'1514.6
2016-Aug-23 20:33N 30°05' W 122°13'3014.8
2016-Aug-23 18:33N 30°28' W 122°35'2014.5
2016-Aug-23 17:08N 30°44' W 122°50'814.6
2016-Aug-23 16:34N 30°51' W 122°56'44814.2
2016-Aug-22 09:07N 37°09' W 127°45'2313.7
2016-Aug-22 07:28N 37°30' W 127°55'1914.0
2016-Aug-22 06:07N 37°48' W 128°04'24914.0
2016-Aug-21 12:22N 41°51' W 129°13'1214.7
2016-Aug-21 11:33N 42°03' W 129°14'4914.1
2016-Aug-21 08:04N 42°52' W 129°16'3514.1
2016-Aug-21 05:33N 43°27' W 129°17'1413.9
2016-Aug-21 04:33N 43°41' W 129°17'1414.2
2016-Aug-21 03:33N 43°55' W 129°18'1414.3
2016-Aug-21 02:33N 44°09' W 129°19'1514.5
2016-Aug-21 01:34N 44°24' W 129°18'1514.4
2016-Aug-21 00:32N 44°39' W 129°19'1414.4
2016-Aug-20 23:33N 44°53' W 129°20'10513.0
2016-Aug-20 15:31N 46°36' W 128°58'4413.5
2016-Aug-20 12:17N 47°00' W 128°04'1013.3
2016-Aug-20 11:33N 47°06' W 127°53'1413.7
2016-Aug-20 10:33N 47°13' W 127°36'1413.7
2016-Aug-20 09:33N 47°21' W 127°19'1413.7
2016-Aug-20 08:33N 47°29' W 127°03'1413.9
2016-Aug-20 07:33N 47°37' W 126°46'1413.7
2016-Aug-20 06:34N 47°44' W 126°28'1413.7
2016-Aug-20 05:33N 47°51' W 126°11'1413.7
2016-Aug-20 04:33N 47°58' W 125°54'1413.8
2016-Aug-20 03:34N 48°06' W 125°36'1413.7
2016-Aug-20 02:34N 48°14' W 125°20'1414.1
2016-Aug-20 01:34N 48°25' W 125°07'1312.9
2016-Aug-20 00:33N 48°31' W 124°50'1413.8
2016-Aug-19 23:33N 48°27' W 124°29'1313.4
2016-Aug-19 22:33N 48°22' W 124°11'1413.4
2016-Aug-19 21:33N 48°17' W 123°52'1414.0
2016-Aug-19 20:33N 48°16' W 123°31'1110.5
2016-Aug-19 19:33N 48°23' W 123°19'1212.3
2016-Aug-19 18:33N 48°35' W 123°14'1413.6
2016-Aug-19 17:33N 48°46' W 123°03'1313.1
2016-Aug-19 16:33N 48°57' W 123°15'1615.9
2016-Aug-19 15:33N 49°08' W 123°32'1414.2
2016-Aug-19 14:34N 49°12' W 123°53'3 3.3
2016-Aug-19 13:31N 49°09' W 123°53'0 0.0
2016-Aug-19 12:31N 49°09' W 123°53'0 0.0
2016-Aug-19 11:31N 49°09' W 123°53'0 0.0
2016-Aug-19 10:31N 49°09' W 123°53'0 0.0
2016-Aug-19 09:19N 49°09' W 123°53'0 0.0
2016-Aug-19 08:31N 49°09' W 123°53'0 0.0
2016-Aug-19 07:31N 49°09' W 123°53'0 0.0
2016-Aug-19 06:31N 49°09' W 123°53'0 0.0
2016-Aug-19 05:31N 49°09' W 123°53'0 0.0
2016-Aug-19 04:31N 49°09' W 123°53'0 0.0
2016-Aug-19 03:31N 49°09' W 123°53'0 0.0
2016-Aug-19 02:31N 49°09' W 123°53'0 0.0
2016-Aug-19 01:31N 49°09' W 123°53'0 0.0
2016-Aug-19 00:28N 49°09' W 123°53'0 0.0
2016-Aug-18 23:31N 49°09' W 123°53'0 0.0
2016-Aug-18 22:31N 49°09' W 123°53'0 0.0
2016-Aug-18 21:31N 49°09' W 123°53'0 0.0
2016-Aug-18 20:31N 49°09' W 123°53'0 0.0
2016-Aug-18 19:31N 49°09' W 123°53'0 0.0
2016-Aug-18 18:31N 49°09' W 123°53'0 0.0
2016-Aug-18 17:25N 49°09' W 123°53'0 0.0
2016-Aug-18 16:31N 49°09' W 123°53'0 0.0
2016-Aug-18 15:31N 49°09' W 123°53'0 0.0
2016-Aug-18 14:28N 49°09' W 123°53'0 0.0
2016-Aug-18 13:28N 49°09' W 123°53'0 0.0
2016-Aug-18 12:28N 49°09' W 123°53'0 0.0
2016-Aug-18 11:28N 49°09' W 123°53'0 0.0
2016-Aug-18 10:31N 49°09' W 123°53'0 0.0
2016-Aug-18 09:31N 49°09' W 123°53'0 0.0
2016-Aug-18 08:28N 49°09' W 123°53'0 0.0
2016-Aug-18 07:28N 49°09' W 123°53'0 0.0
2016-Aug-18 06:31N 49°09' W 123°53'0 0.0
2016-Aug-18 05:28N 49°09' W 123°53'0 0.0
2016-Aug-18 04:28N 49°09' W 123°53'0 0.0
2016-Aug-18 03:28N 49°09' W 123°53'0 0.0
2016-Aug-18 02:22N 49°09' W 123°53'0 0.0
2016-Aug-18 01:28N 49°09' W 123°53'0 0.0
2016-Aug-18 00:28N 49°09' W 123°53'0 0.0
2016-Aug-17 23:22N 49°09' W 123°53'0 0.0
2016-Aug-17 22:31N 49°09' W 123°53'0 0.0
2016-Aug-17 21:31N 49°09' W 123°53'0 0.0
2016-Aug-17 20:32N 49°09' W 123°53'0 0.0
2016-Aug-17 17:28N 49°09' W 123°53'0 0.0
2016-Aug-17 16:34N 49°09' W 123°53'4 3.6
2016-Aug-17 15:33N 49°13' W 123°52'1111.0
2016-Aug-17 14:33N 49°09' W 123°36'1212.2
2016-Aug-17 13:33N 49°03' W 123°20'1212.5
2016-Aug-17 12:33N 48°54' W 123°06'10 9.5
2016-Aug-17 11:33N 48°45' W 123°04'1010.5
2016-Aug-17 10:34N 48°36' W 123°13'1312.8
2016-Aug-17 09:33N 48°24' W 123°14'1111.3
2016-Aug-17 08:33N 48°16' W 123°26'1312.7
2016-Aug-17 07:33N 48°13' W 123°45'1313.2
2016-Aug-17 06:33N 48°16' W 124°04'1312.7
2016-Aug-17 05:33N 48°22' W 124°22'1212.5
2016-Aug-17 04:34N 48°27' W 124°39'1211.8
2016-Aug-17 03:33N 48°28' W 124°56'1312.3
2016-Aug-17 02:29N 48°18' W 125°09'1212.8
2016-Aug-17 01:33N 48°09' W 125°21'1313.2
2016-Aug-17 00:34N 48°02' W 125°37'1313.0
2016-Aug-16 23:34N 47°55' W 125°53'1312.8
2016-Aug-16 22:34N 47°48' W 126°09'1312.5
2016-Aug-16 21:31N 47°42' W 126°26'1212.4
2016-Aug-16 20:33N 47°35' W 126°41'1411.9
2016-Aug-16 19:24N 47°28' W 126°58'1212.6
2016-Aug-16 18:26N 47°21' W 127°13'50811.8
2016-Aug-14 23:14N 38°57' W 128°38'2212.7
2016-Aug-14 21:32N 38°37' W 128°28'2713.0
2016-Aug-14 19:29N 38°12' W 128°16'  

Dump ship's entire track history